createdAt,value
2022-08-01T00:00:09.959Z,61.78
2022-08-01T00:02:41.251Z,61.64
2022-08-01T00:05:09.664Z,61.97
2022-08-01T00:07:36.520Z,61.78
2022-08-01T00:10:12.196Z,61.56
2022-08-01T00:12:39.633Z,61.29
2022-08-01T00:15:09.062Z,62.03
2022-08-01T00:17:36.457Z,62.29
2022-08-01T00:20:06.324Z,62.33
2022-08-01T00:22:33.632Z,62.44
2022-08-01T00:25:00.933Z,62.35
2022-08-01T00:27:28.114Z,62.44
2022-08-01T00:30:11.109Z,62.61
2022-08-01T00:32:39.702Z,62.96
2022-08-01T00:35:07.513Z,63.10
2022-08-01T00:37:34.366Z,63.23
2022-08-01T00:40:01.136Z,63.09
2022-08-01T00:42:27.902Z,62.77
2022-08-01T00:44:54.809Z,62.74
2022-08-01T00:47:21.727Z,62.72
2022-08-01T00:49:48.580Z,62.25
2022-08-01T00:52:15.587Z,62.82
2022-08-01T00:54:42.661Z,63.09
2022-08-01T00:57:10.757Z,63.14
2022-08-01T00:59:38.071Z,62.99
2022-08-01T01:02:14.906Z,62.88
2022-08-01T01:04:43.992Z,63.23
2022-08-01T01:07:16.926Z,63.27
2022-08-01T01:10:30.259Z,62.98
2022-08-01T01:13:06.671Z,63.23
2022-08-01T01:15:51.015Z,63.34
2022-08-01T01:18:20.645Z,63.61
2022-08-01T01:21:14.908Z,63.60
2022-08-01T01:23:47.243Z,63.77
2022-08-01T01:26:33.585Z,63.84
2022-08-01T01:29:09.192Z,63.11
2022-08-01T01:31:45.640Z,63.64
2022-08-01T01:34:14.679Z,63.80
2022-08-01T01:36:44.813Z,64.46
2022-08-01T01:39:12.880Z,64.66
2022-08-01T01:41:40.240Z,65.14
2022-08-01T01:44:09.388Z,65.48
2022-08-01T01:46:37.765Z,65.90
2022-08-01T01:49:06.689Z,65.99
2022-08-01T01:51:34.426Z,66.30
2022-08-01T01:54:03.496Z,66.02
2022-08-01T01:56:32.077Z,66.30
2022-08-01T01:59:02.147Z,66.53
2022-08-01T02:01:58.479Z,66.57
2022-08-01T02:04:21.032Z,66.81
2022-08-01T02:06:51.185Z,66.52
2022-08-01T02:09:19.698Z,66.44
2022-08-01T02:12:07.193Z,66.43
2022-08-01T02:14:38.992Z,66.48
2022-08-01T02:17:06.131Z,66.54
2022-08-01T02:19:37.993Z,66.63
2022-08-01T02:22:14.569Z,66.69
2022-08-01T02:24:55.545Z,66.57
2022-08-01T02:27:27.163Z,67.13
2022-08-01T02:30:01.208Z,66.94
2022-08-01T02:32:39.635Z,66.69
2022-08-01T02:35:11.116Z,66.54
2022-08-01T02:37:42.991Z,66.55
2022-08-01T02:40:14.532Z,66.39
2022-08-01T02:42:46.504Z,66.52
2022-08-01T02:45:14.727Z,66.94
2022-08-01T02:47:44.635Z,67.79
2022-08-01T02:50:38.280Z,67.92
2022-08-01T02:53:07.874Z,67.92
2022-08-01T02:55:36.443Z,67.94
2022-08-01T02:58:04.345Z,67.95
2022-08-01T03:00:32.171Z,68.42
2022-08-01T03:03:00.948Z,68.37
2022-08-01T03:05:28.616Z,68.59
2022-08-01T03:08:02.732Z,68.45
2022-08-01T03:10:33.768Z,68.05
2022-08-01T03:13:02.573Z,67.85
2022-08-01T03:15:32.272Z,68.08
2022-08-01T03:18:01.943Z,69.42
2022-08-01T03:20:31.637Z,69.45
2022-08-01T03:23:00.951Z,69.46
2022-08-01T03:25:30.176Z,69.47
2022-08-01T03:28:00.754Z,69.40
2022-08-01T03:30:31.126Z,69.13
2022-08-01T03:32:58.514Z,69.15
2022-08-01T03:35:31.886Z,69.66
2022-08-01T03:38:16.924Z,70.63
2022-08-01T03:41:22.137Z,71.17
2022-08-01T03:44:21.464Z,71.11
2022-08-01T03:46:51.101Z,71.14
2022-08-01T03:49:41.170Z,71.35
2022-08-01T03:52:10.465Z,70.71
2022-08-01T03:54:42.096Z,69.92
2022-08-01T03:57:23.362Z,69.75
2022-08-01T04:00:00.054Z,66.49
2022-08-01T04:02:28.620Z,65.85
2022-08-01T04:04:55.984Z,66.08
2022-08-01T04:07:27.663Z,66.38
2022-08-01T04:09:54.841Z,67.09
2022-08-01T04:12:22.568Z,67.59
2022-08-01T04:14:50.218Z,68.21
2022-08-01T04:17:18.192Z,68.23
2022-08-01T04:19:47.221Z,68.68
2022-08-01T04:22:16.062Z,68.92
2022-08-01T04:24:54.671Z,68.92
2022-08-01T04:27:49.125Z,68.70
2022-08-01T04:30:20.170Z,68.41
2022-08-01T04:32:48.696Z,67.98
2022-08-01T04:35:23.121Z,67.65
2022-08-01T04:38:07.511Z,67.78
2022-08-01T04:40:36.940Z,67.46
2022-08-01T04:43:04.564Z,67.48
2022-08-01T04:45:33.682Z,67.47
2022-08-01T04:48:01.411Z,67.64
2022-08-01T04:50:29.161Z,67.60
2022-08-01T04:52:56.082Z,67.95
2022-08-01T04:55:22.943Z,67.71
2022-08-01T04:57:50.173Z,67.56
2022-08-01T05:00:19.974Z,67.41
2022-08-01T05:02:47.973Z,67.33
2022-08-01T05:05:15.893Z,66.85
2022-08-01T05:07:45.249Z,66.38
2022-08-01T05:10:13.281Z,65.19
2022-08-01T05:12:40.288Z,65.56
2022-08-01T05:15:11.736Z,65.84
2022-08-01T05:17:43.498Z,65.49
2022-08-01T05:20:12.517Z,64.91
2022-08-01T05:22:39.615Z,63.93
2022-08-01T05:25:07.169Z,63.79
2022-08-01T05:27:38.764Z,63.67
2022-08-01T05:30:10.029Z,63.44
2022-08-01T05:32:39.497Z,63.67
2022-08-01T05:35:07.133Z,63.98
2022-08-01T05:37:34.080Z,64.43
2022-08-01T05:40:01.503Z,64.51
2022-08-01T05:42:28.248Z,64.56
2022-08-01T05:44:55.030Z,64.56
2022-08-01T05:47:21.823Z,63.93
2022-08-01T05:49:48.672Z,61.42
2022-08-01T05:52:15.594Z,54.82
2022-08-01T05:54:42.600Z,51.14
2022-08-01T05:57:09.533Z,51.20
2022-08-01T05:59:38.036Z,51.35
2022-08-01T06:02:05.399Z,51.44
2022-08-01T06:04:32.489Z,50.64
2022-08-01T06:06:59.408Z,48.45
2022-08-01T06:09:26.335Z,48.01
2022-08-01T06:11:53.192Z,48.77
2022-08-01T06:14:19.952Z,51.29
2022-08-01T06:16:47.240Z,51.78
2022-08-01T06:19:13.998Z,51.91
2022-08-01T06:21:40.806Z,51.75
2022-08-01T06:24:07.765Z,48.83
2022-08-01T06:26:34.513Z,47.08
2022-08-01T06:29:01.290Z,44.81
2022-08-01T06:31:33.158Z,40.58
2022-08-01T06:34:00.660Z,41.77
2022-08-01T06:36:27.783Z,41.87
2022-08-01T06:38:55.377Z,36.38
2022-08-01T06:41:22.319Z,36.01
2022-08-01T06:43:49.248Z,39.97
2022-08-01T06:46:16.044Z,35.18
2022-08-01T06:48:43.702Z,38.48
2022-08-01T06:51:10.663Z,40.42
2022-08-01T06:53:38.753Z,42.56
2022-08-01T06:56:07.168Z,44.09
2022-08-01T06:58:35.480Z,44.86
2022-08-01T07:01:13.845Z,44.86
2022-08-01T07:03:54.635Z,44.35
2022-08-01T07:06:23.965Z,44.48
2022-08-01T07:08:51.183Z,45.31
2022-08-01T07:11:18.136Z,45.28
2022-08-01T07:13:46.870Z,46.65
2022-08-01T07:16:14.873Z,46.00
2022-08-01T07:18:42.463Z,48.77
2022-08-01T07:21:16.804Z,47.70
2022-08-01T07:23:56.840Z,47.32
2022-08-01T07:26:23.746Z,47.29
2022-08-01T07:28:50.636Z,47.08
2022-08-01T07:31:17.549Z,46.81
2022-08-01T07:33:48.460Z,46.44
2022-08-01T07:36:16.927Z,45.44
2022-08-01T07:38:44.065Z,42.11
2022-08-01T07:41:11.104Z,39.76
2022-08-01T07:43:38.033Z,38.97
2022-08-01T07:46:05.723Z,39.13
2022-08-01T07:48:32.697Z,38.81
2022-08-01T07:50:59.688Z,37.34
2022-08-01T07:53:26.787Z,36.55
2022-08-01T07:55:56.355Z,35.19
2022-08-01T07:58:23.089Z,35.45
2022-08-01T08:00:49.849Z,35.34
2022-08-01T08:03:16.597Z,35.43
2022-08-01T08:05:58.008Z,33.87
2022-08-01T08:08:27.131Z,33.00
2022-08-01T08:10:53.884Z,31.75
2022-08-01T08:13:20.956Z,31.79
2022-08-01T08:15:48.889Z,32.00
2022-08-01T08:18:16.470Z,32.65
2022-08-01T08:20:44.597Z,31.97
2022-08-01T08:23:42.464Z,33.54
2022-08-01T08:26:11.875Z,33.99
2022-08-01T08:28:40.263Z,33.39
2022-08-01T08:31:25.406Z,34.08
2022-08-01T08:33:55.670Z,34.35
2022-08-01T08:36:22.538Z,33.87
2022-08-01T08:38:58.792Z,33.95
2022-08-01T08:41:25.649Z,35.87
2022-08-01T08:43:52.485Z,35.75
2022-08-01T08:46:28.254Z,36.72
2022-08-01T08:48:56.950Z,36.89
2022-08-01T08:51:27.722Z,37.52
2022-08-01T08:53:58.973Z,37.73
2022-08-01T08:56:28.219Z,38.15
2022-08-01T08:58:55.469Z,38.26
2022-08-01T09:01:23.054Z,39.63
2022-08-01T09:03:50.054Z,39.97
2022-08-01T09:06:16.847Z,39.23
2022-08-01T09:08:43.720Z,39.78
2022-08-01T09:11:12.438Z,40.55
2022-08-01T09:13:45.257Z,40.64
2022-08-01T09:16:18.335Z,40.02
2022-08-01T09:18:45.900Z,40.00
2022-08-01T09:21:25.067Z,40.39
2022-08-01T09:23:55.161Z,39.07
2022-08-01T09:26:30.991Z,37.24
2022-08-01T09:28:58.322Z,36.86
2022-08-01T09:31:28.166Z,36.09
2022-08-01T09:34:05.601Z,36.28
2022-08-01T09:36:49.425Z,35.47
2022-08-01T09:39:16.685Z,34.95
2022-08-01T09:41:43.614Z,33.23
2022-08-01T09:44:10.437Z,34.03
2022-08-01T09:46:50.461Z,34.40
2022-08-01T09:49:50.517Z,32.92
2022-08-01T09:52:20.116Z,32.71
2022-08-01T09:55:05.755Z,32.84
2022-08-01T09:57:32.674Z,31.98
2022-08-01T10:00:01.992Z,31.82
2022-08-01T10:02:41.756Z,31.65
2022-08-01T10:05:11.292Z,32.58
2022-08-01T10:08:07.835Z,32.63
2022-08-01T10:10:37.432Z,32.61
2022-08-01T10:13:05.257Z,32.52
2022-08-01T10:15:36.944Z,31.78
2022-08-01T10:18:16.851Z,32.55
2022-08-01T10:20:56.774Z,32.85
2022-08-01T10:23:40.197Z,32.40
2022-08-01T10:26:10.906Z,31.79
2022-08-01T10:28:39.660Z,32.37
2022-08-01T10:31:12.508Z,32.39
2022-08-01T10:33:51.822Z,31.79
2022-08-01T10:36:25.423Z,31.78
2022-08-01T10:38:55.583Z,32.09
2022-08-01T10:41:22.841Z,32.25
2022-08-01T10:43:49.772Z,32.71
2022-08-01T10:46:19.274Z,33.34
2022-08-01T10:49:01.995Z,32.89
2022-08-01T10:51:52.316Z,33.65
2022-08-01T10:54:16.254Z,33.50
2022-08-01T10:56:51.409Z,34.68
2022-08-01T10:59:49.361Z,33.91
2022-08-01T11:02:11.161Z,34.58
2022-08-01T11:04:56.719Z,35.03
2022-08-01T11:07:37.224Z,34.88
2022-08-01T11:10:17.646Z,34.44
2022-08-01T11:12:44.439Z,34.56
2022-08-01T11:15:11.144Z,33.08
2022-08-01T11:17:42.474Z,33.82
2022-08-01T11:20:16.295Z,33.68
2022-08-01T11:23:03.602Z,32.17
2022-08-01T11:26:05.401Z,32.03
2022-08-01T11:28:32.359Z,33.49
2022-08-01T11:31:14.195Z,31.47
2022-08-01T11:33:45.644Z,32.93
2022-08-01T11:36:32.213Z,32.42
2022-08-01T11:39:13.078Z,33.34
2022-08-01T11:41:42.205Z,33.16
2022-08-01T11:44:18.511Z,31.05
2022-08-01T11:47:13.435Z,33.02
2022-08-01T11:49:49.156Z,31.78
2022-08-01T11:52:19.372Z,32.92
2022-08-01T11:54:54.770Z,33.42
2022-08-01T11:57:34.359Z,33.92
2022-08-01T12:00:08.505Z,33.40
2022-08-01T12:02:42.010Z,32.34
2022-08-01T12:05:15.835Z,33.85
2022-08-01T12:07:44.784Z,32.94
2022-08-01T12:10:14.386Z,32.58
2022-08-01T12:12:50.550Z,33.23
2022-08-01T12:15:18.691Z,32.91
2022-08-01T12:17:58.392Z,33.72
2022-08-01T12:20:34.364Z,33.34
2022-08-01T12:23:03.827Z,32.33
2022-08-01T12:25:30.917Z,32.37
2022-08-01T12:28:02.207Z,32.87
2022-08-01T12:30:31.966Z,31.16
2022-08-01T12:32:59.448Z,31.39
2022-08-01T12:35:28.654Z,31.42
2022-08-01T12:37:58.239Z,31.22
2022-08-01T12:40:43.312Z,31.33
2022-08-01T12:43:27.343Z,30.44
2022-08-01T12:45:57.445Z,30.69
2022-08-01T12:48:25.883Z,31.92
2022-08-01T12:50:53.887Z,32.41
2022-08-01T12:53:21.734Z,31.00
2022-08-01T12:55:59.221Z,31.10
2022-08-01T12:58:34.449Z,30.79
2022-08-01T13:01:07.045Z,31.47
2022-08-01T13:03:34.756Z,30.84
2022-08-01T13:06:01.678Z,31.62
2022-08-01T13:08:33.903Z,31.65
2022-08-01T13:11:15.939Z,33.16
2022-08-01T13:13:54.882Z,34.20
2022-08-01T13:16:30.376Z,34.45
2022-08-01T13:19:09.955Z,34.72
2022-08-01T13:21:54.258Z,35.02
2022-08-01T13:24:29.521Z,35.57
2022-08-01T13:27:02.270Z,34.93
2022-08-01T13:29:42.408Z,35.82
2022-08-01T13:32:29.123Z,36.44
2022-08-01T13:35:08.772Z,36.66
2022-08-01T13:37:39.013Z,36.35
2022-08-01T13:40:07.470Z,36.28
2022-08-01T13:42:34.436Z,35.92
2022-08-01T13:45:01.336Z,34.94
2022-08-01T13:47:32.019Z,34.38
2022-08-01T13:50:04.672Z,34.38
2022-08-01T13:52:31.978Z,34.49
2022-08-01T13:54:59.920Z,34.96
2022-08-01T13:57:36.919Z,34.91
2022-08-01T14:00:09.670Z,34.19
2022-08-01T14:02:39.296Z,33.48
2022-08-01T14:05:14.552Z,34.25
2022-08-01T14:07:42.385Z,34.75
2022-08-01T14:10:19.290Z,35.29
2022-08-01T14:12:50.633Z,35.59
2022-08-01T14:15:37.579Z,35.23
2022-08-01T14:18:07.583Z,36.18
2022-08-01T14:20:35.544Z,36.17
2022-08-01T14:23:04.643Z,36.99
2022-08-01T14:26:00.635Z,36.99
2022-08-01T14:28:25.053Z,37.70
2022-08-01T14:30:52.105Z,37.20
2022-08-01T14:33:21.971Z,36.67
2022-08-01T14:36:05.443Z,36.99
2022-08-01T14:38:35.798Z,37.67
2022-08-01T14:41:04.655Z,37.34
2022-08-01T14:43:33.904Z,37.48
2022-08-01T14:46:05.794Z,37.69
2022-08-01T14:48:32.871Z,38.04
2022-08-01T14:51:03.827Z,38.16
2022-08-01T14:53:34.309Z,37.30
2022-08-01T14:56:06.832Z,37.95
2022-08-01T14:58:34.110Z,38.42
2022-08-01T15:01:01.678Z,39.45
2022-08-01T15:03:28.727Z,40.15
2022-08-01T15:05:55.535Z,39.47
2022-08-01T15:08:22.359Z,39.72
2022-08-01T15:10:49.167Z,39.66
2022-08-01T15:13:15.938Z,40.47
2022-08-01T15:15:42.738Z,40.92
2022-08-01T15:18:09.922Z,41.50
2022-08-01T15:20:37.060Z,42.09
2022-08-01T15:23:03.818Z,41.72
2022-08-01T15:25:41.810Z,42.61
2022-08-01T15:28:10.685Z,43.70
2022-08-01T15:30:37.562Z,43.79
2022-08-01T15:33:04.517Z,45.10
2022-08-01T15:35:31.745Z,44.66
2022-08-01T15:37:58.794Z,44.64
2022-08-01T15:40:25.697Z,44.95
2022-08-01T15:42:53.273Z,45.40
2022-08-01T15:45:45.827Z,45.70
2022-08-01T15:48:09.004Z,46.44
2022-08-01T15:50:38.682Z,46.53
2022-08-01T15:53:06.842Z,45.44
2022-08-01T15:55:38.220Z,45.11
2022-08-01T15:58:06.129Z,45.63
2022-08-01T16:00:39.680Z,45.04
2022-08-01T16:03:10.589Z,45.96
2022-08-01T16:05:42.958Z,45.19
2022-08-01T16:08:14.314Z,45.52
2022-08-01T16:10:41.602Z,45.37
2022-08-01T16:13:09.631Z,45.04
2022-08-01T16:15:38.222Z,44.76
2022-08-01T16:18:10.018Z,44.31
2022-08-01T16:20:42.764Z,44.80
2022-08-01T16:23:10.414Z,44.96
2022-08-01T16:25:39.644Z,44.86
2022-08-01T16:28:07.693Z,45.02
2022-08-01T16:30:34.538Z,45.07
2022-08-01T16:33:05.527Z,45.10
2022-08-01T16:35:51.556Z,45.46
2022-08-01T16:38:22.049Z,45.21
2022-08-01T16:40:51.337Z,46.02
2022-08-01T16:43:19.932Z,45.12
2022-08-01T16:45:46.956Z,45.88
2022-08-01T16:48:21.791Z,45.39
2022-08-01T16:50:49.975Z,44.90
2022-08-01T16:53:18.162Z,45.67
2022-08-01T16:55:50.146Z,46.91
2022-08-01T16:58:27.261Z,48.69
2022-08-01T17:00:56.833Z,48.70
2022-08-01T17:03:51.774Z,48.73
2022-08-01T17:06:12.544Z,49.06
2022-08-01T17:08:46.563Z,48.74
2022-08-01T17:13:55.955Z,49.06
2022-08-01T17:16:23.015Z,47.50
2022-08-01T17:18:49.926Z,46.42
2022-08-01T17:21:20.085Z,45.94
2022-08-01T17:23:46.967Z,45.28
2022-08-01T17:26:16.835Z,44.97
2022-08-01T17:28:43.860Z,45.71
2022-08-01T17:31:10.855Z,47.02
2022-08-01T17:33:45.304Z,46.81
2022-08-01T17:36:15.159Z,47.47
2022-08-01T17:38:42.093Z,47.02
2022-08-01T17:41:10.569Z,48.40
2022-08-01T17:43:38.938Z,49.23
2022-08-01T17:46:05.856Z,48.83
2022-08-01T17:48:32.673Z,48.77
2022-08-01T17:51:01.929Z,48.23
2022-08-01T17:53:28.778Z,47.55
2022-08-01T17:55:58.644Z,47.76
2022-08-01T17:58:33.781Z,47.82
2022-08-01T18:01:15.497Z,47.57
2022-08-01T18:03:44.994Z,47.74
2022-08-01T18:06:14.388Z,49.44
2022-08-01T18:08:43.098Z,50.77
2022-08-01T18:11:10.379Z,51.09
2022-08-01T18:13:40.536Z,51.78
2022-08-01T18:16:11.087Z,52.04
2022-08-01T18:18:39.153Z,51.46
2022-08-01T18:21:07.913Z,49.93
2022-08-01T18:23:35.212Z,50.22
2022-08-01T18:26:02.887Z,50.94
2022-08-01T18:28:36.488Z,51.56
2022-08-01T18:31:06.740Z,51.77
2022-08-01T18:33:36.524Z,52.26
2022-08-01T18:36:04.593Z,52.34
2022-08-01T18:38:35.161Z,52.60
2022-08-01T18:41:05.613Z,52.74
2022-08-01T18:43:32.398Z,53.27
2022-08-01T18:46:01.308Z,53.98
2022-08-01T18:48:28.201Z,54.49
2022-08-01T18:50:55.158Z,54.74
2022-08-01T18:53:24.033Z,54.58
2022-08-01T18:55:50.978Z,55.55
2022-08-01T18:58:17.752Z,56.09
2022-08-01T19:00:44.574Z,56.54
2022-08-01T19:03:13.169Z,56.76
2022-08-01T19:05:39.887Z,56.05
2022-08-01T19:08:09.250Z,55.74
2022-08-01T19:10:36.995Z,55.07
2022-08-01T19:13:03.936Z,54.36
2022-08-01T19:15:30.959Z,53.41
2022-08-01T19:17:59.780Z,54.18
2022-08-01T19:20:27.155Z,54.81
2022-08-01T19:22:54.162Z,54.82
2022-08-01T19:25:21.153Z,54.95
2022-08-01T19:27:50.048Z,55.37
2022-08-01T19:30:18.837Z,56.06
2022-08-01T19:32:47.491Z,56.48
2022-08-01T19:35:17.276Z,56.41
2022-08-01T19:37:47.192Z,56.31
2022-08-01T19:40:27.245Z,56.72
2022-08-01T19:42:57.145Z,56.87
2022-08-01T19:45:28.534Z,57.11
2022-08-01T19:47:56.578Z,57.07
2022-08-01T19:50:28.654Z,57.40
2022-08-01T19:52:57.448Z,57.38
2022-08-01T19:55:25.374Z,57.19
2022-08-01T20:00:42.772Z,57.31
2022-08-01T20:03:11.789Z,57.14
2022-08-01T20:05:39.277Z,57.26
2022-08-01T20:08:07.432Z,57.91
2022-08-01T20:10:37.580Z,57.55
2022-08-01T20:13:05.538Z,57.67
2022-08-01T20:15:32.735Z,57.72
2022-08-01T20:18:00.802Z,57.79
2022-08-01T20:20:28.018Z,57.70
2022-08-01T20:22:57.008Z,57.62
2022-08-01T20:25:33.554Z,57.48
2022-08-01T20:28:11.532Z,57.27
2022-08-01T20:30:39.400Z,57.06
2022-08-01T20:33:07.872Z,56.82
2022-08-01T20:35:52.169Z,56.68
2022-08-01T20:38:23.885Z,56.67
2022-08-01T20:40:53.229Z,57.00
2022-08-01T20:43:22.165Z,56.96
2022-08-01T20:45:53.378Z,57.19
2022-08-01T20:48:20.639Z,57.63
2022-08-01T20:51:07.408Z,57.52
2022-08-01T20:53:40.783Z,57.91
2022-08-01T20:56:16.978Z,58.41
2022-08-01T20:59:06.352Z,58.44
2022-08-01T21:01:47.878Z,58.57
2022-08-01T21:04:43.519Z,58.79
2022-08-01T21:07:32.479Z,59.23
2022-08-01T21:10:08.561Z,59.02
2022-08-01T21:12:48.481Z,58.61
2022-08-01T21:15:15.493Z,58.87
2022-08-01T21:17:55.999Z,58.91
2022-08-01T21:20:28.735Z,59.04
2022-08-01T21:23:08.956Z,58.91
2022-08-01T21:25:39.176Z,58.97
2022-08-01T21:28:06.360Z,59.16
2022-08-01T21:30:36.460Z,59.23
2022-08-01T21:33:06.826Z,58.61
2022-08-01T21:35:35.408Z,58.34
2022-08-01T21:38:05.909Z,58.20
2022-08-01T21:40:35.122Z,58.41
2022-08-01T21:43:03.879Z,58.51
2022-08-01T21:45:34.243Z,58.62
2022-08-01T21:48:01.343Z,58.50
2022-08-01T21:50:30.480Z,58.66
2022-08-01T21:53:11.624Z,58.57
2022-08-01T21:56:14.455Z,58.11
2022-08-01T21:59:20.764Z,57.79
2022-08-01T22:02:15.704Z,58.20
2022-08-01T22:04:55.551Z,58.96
2022-08-01T22:07:23.036Z,58.79
2022-08-01T22:09:50.755Z,59.06
2022-08-01T22:12:19.063Z,58.35
2022-08-01T22:14:51.440Z,58.04
2022-08-01T22:17:22.724Z,58.21
2022-08-01T22:19:54.080Z,57.82
2022-08-01T22:22:44.167Z,58.05
2022-08-01T22:25:11.094Z,57.38
2022-08-01T22:28:05.546Z,57.82
2022-08-01T22:30:29.263Z,57.66
2022-08-01T22:33:15.818Z,58.01
2022-08-01T22:35:49.834Z,58.26
2022-08-01T22:38:18.831Z,58.41
2022-08-01T22:40:50.596Z,58.52
2022-08-01T22:43:26.423Z,58.56
2022-08-01T22:46:29.079Z,58.98
2022-08-01T22:48:59.808Z,58.94
2022-08-01T22:51:38.395Z,59.00
2022-08-01T22:54:13.191Z,59.05
2022-08-01T22:56:49.708Z,59.20
2022-08-01T22:59:43.087Z,59.28
2022-08-01T23:02:14.892Z,59.81
2022-08-01T23:04:48.021Z,59.40
2022-08-01T23:07:28.366Z,58.64
2022-08-01T23:09:57.085Z,58.75
2022-08-01T23:12:26.032Z,58.38
2022-08-01T23:14:57.630Z,58.44
2022-08-01T23:17:29.068Z,58.17
2022-08-01T23:20:05.539Z,57.94
2022-08-01T23:22:35.209Z,57.36
2022-08-01T23:25:08.079Z,57.20
2022-08-01T23:27:51.572Z,56.93
2022-08-01T23:30:34.043Z,56.80
2022-08-01T23:33:01.435Z,57.14
2022-08-01T23:35:30.042Z,57.17
2022-08-01T23:37:58.748Z,57.61
2022-08-01T23:40:29.473Z,57.40
2022-08-01T23:42:56.484Z,57.10
2022-08-01T23:45:23.720Z,57.02
2022-08-01T23:47:51.152Z,57.27
2022-08-01T23:50:18.482Z,57.42
2022-08-01T23:52:48.509Z,57.77
2022-08-01T23:55:17.638Z,58.04
2022-08-01T23:57:44.424Z,58.11
